Historyczne dane pomiarowe

Dodano dane terminowe – wersja testowa.

Dane z okresu 1951-2019

Wersja bazy: 1.34 [2019-03-16, lista zmian], aktualizacja planowana na 2019-04-15

Dane meteo z obszaru Polski uzyskane na podstawie danych udostępnionych przez Instytut Meteorologii i Gospodarki Wodnej – Państwowy Instytut Badawczy.

 

Wybierz Datę:    

       

TemperaturaWilgotnośćWiatrCiśnienieOpadyŚniegCzas trwania zjawisk
 Stacja t tx tn tng RH VA  wxwx mslp ppp RRR   cm mm wxwxwxwxwxwxwx
1994-08-14 15.9 19.4 12.4- 70.0- 4.3 4.3---- 0.4------------
1994-08-13 17.5 23.0 15.1- 84.8- 6.0 3.7---- 3.6------------
1994-08-12 17.5 20.3 16.0- 87.5- 8.0 2.3---- 0.5------------
1994-08-11 19.9 23.5 15.4- 84.8- 8.0 2.7---- 3.2------------
1994-08-10 20.5 26.3 15.8- 72.0- 2.7 1.7---- 0.0------------
1994-08-09 20.7 26.5 16.7- 87.0- 7.7 2.0---- 17.3------------
1994-08-08 23.0 28.0 18.9- 78.5- 5.3 1.3---- 1.0------------
1994-08-07 24.4 31.0 15.8- 66.3- 6.3 1.0---- 4.0------------
1994-08-06 24.1 32.4 15.2- 52.8- 0.0 1.0---- 0.0------------
1994-08-05 23.8 31.1 16.6- 59.3- 0.3 2.0---- 0.0------------
1994-08-04 24.7 30.4 17.8- 69.5- 3.3 1.3---- 0.7------------
1994-08-03 26.4 31.5 17.6- 59.5- 0.3 2.7---- 5.0------------
1994-08-02 26.7 33.4 16.4- 53.3- 1.3 2.3---- 0.0------------
1994-08-01 27.3 34.8 16.5- 59.5- 3.3 1.7---- 0.0------------
1994-07-31 27.9 34.6 16.5- 46.8- 0.3 0.7---- 0.0------------
1994-07-30 27.0 34.0 16.4- 46.5- 1.0 1.3---- 0.0------------
1994-07-29 26.4 33.8 15.3- 30.5- 0.3 1.3---- 0.0------------
1994-07-28 25.8 33.0 15.9- 44.5- 0.7 0.7---- 0.0------------
1994-07-27 26.6 33.1 15.4- 43.0- 1.3 1.3---- 0.0------------
1994-07-26 25.5 32.8 15.3- 52.3- 1.0 1.0---- 0.0------------
1994-07-25 25.3 32.0 14.5- 53.5- 2.7 0.7---- 0.0------------
1994-07-24 24.9 30.4 14.5- 45.5- 0.7 1.7---- 0.0------------
1994-07-23 22.7 29.0 14.3- 48.3- 1.0 1.3---- 0.0------------
1994-07-22 21.3 27.0 13.4- 51.5- 0.0 2.3---- 0.0------------
1994-07-21 21.6 26.5 12.0- 47.0- 0.0 1.7---- 0.0------------
1994-07-20 20.0 24.3 11.9- 52.8- 0.3 4.3---- 0.0------------
1994-07-19 19.8 25.4 14.4- 64.5- 5.0 2.3---- 0.0------------
1994-07-18 20.4 25.4 17.4- 69.8- 6.0 1.3---- 4.5------------
1994-07-17 23.3 28.1 17.3- 67.8- 4.0 1.0---- 5.0------------
1994-07-16 24.3 30.5 14.0- 61.5- 1.3 1.7---- 0.0------------
1994-07-15 22.6 27.6 15.0- 62.0- 1.7 2.0---- 0.0------------
1994-07-14 20.1 28.3 15.5- 78.0- 3.3 1.3---- 7.0------------
1994-07-13 23.7 29.0 15.0- 52.5- 2.3 2.7---- 0.0------------
1994-07-12 21.6 27.5 16.5- 57.8- 4.0 3.7---- 0.0------------
1994-07-11 18.6 23.6 12.6- 76.0- 5.3 2.3---- 0.1------------
1994-07-10 16.1 22.5 12.5- 69.0- 5.3 3.0---- 5.2------------
1994-07-09 15.6 17.7 12.3- 74.3- 7.7 2.0---- 21.0------------
1994-07-08 18.8 22.5 15.8- 57.5- 5.0 3.3---- 0.1------------
1994-07-07 21.2 27.4 13.0- 51.8- 2.7 2.7---- 0.7------------
1994-07-06 21.3 25.4 11.9- 42.0- 2.7 1.0---- 0.0------------
1994-07-05 22.5 26.9 13.7- 46.3- 4.3 3.0---- 0.0------------
1994-07-04 22.1 27.4 12.0- 46.5- 0.3 1.7---- 0.0------------
1994-07-03 21.3 26.0 11.0- 46.0- 0.0 1.3---- 0.0------------
1994-07-02 19.9 23.6 11.9- 48.0- 0.0 2.0---- 0.0------------
1994-07-01 19.8 23.5 15.0- 55.8- 1.0 2.7---- 0.0------------
1994-06-30 24.0 29.6 17.3- 75.5- 5.0 4.0---- 2.3------------
1994-06-29 25.9 30.5 16.5- 62.5- 0.3 2.3---- 0.0------------
1994-06-28 25.4 29.6 19.2- 66.0- 0.3 1.0---- 0.0------------
1994-06-27 27.3 32.3 18.8- 59.0- 0.7 1.3---- 0.0------------
1994-06-26 21.8 29.0 12.0- 51.3- 0.0 2.0---- 0.0------------
1994-06-25 17.2 22.3 6.6- 57.3- 0.0 2.0---- 0.0------------
1994-06-24 16.2 25.0 7.5- 47.3- 0.3 3.7---- 0.0------------
1994-06-23 18.5 22.8 16.3- 49.5- 1.0 3.7---- 0.0------------
1994-06-22 19.8 27.0 8.9- 54.5- 5.7 5.0---- 0.0------------
1994-06-21 16.1 21.0 9.1- 63.3- 1.7 2.0---- 0.0------------
1994-06-20 18.7 22.0 12.6- 78.8- 4.3 4.0---- 0.0------------
1994-06-19 17.8 23.4 14.2- 75.5- 7.0 2.7---- 0.0------------
1994-06-18 12.7 19.0 4.5- 81.0- 4.3 2.3---- 2.4------------
1994-06-17 12.4 15.8 6.8- 82.3- 4.0 2.7---- 2.2------------
1994-06-16 14.2 17.6 6.7- 72.8- 5.7 3.0---- 4.8------------
209.8 ms

 

Źródłem pochodzenia danych jest Instytut Meteorologii i Gospodarki Wodnej – Państwowy Instytut Badawczy. Dane Instytutu Meteorologii i Gospodarki Wodnej – Państwowego Instytutu Badawczego zostały przetworzone.

Dane źródłowe można odnaleźć na stronie https://dane.imgw.pl